Main page
METAR-TAF:

METAR-TAF

Airports :

Brighton City Airport (Shoreham Airport)

Brighton, England

latitude: 50-50N, longitude: 000-17W, elevation: 2 m

Current weather observation

The report was made 10 hours and 59 minutes ago, at 18:50 UTC
Wind 14 kt from the Southwest
Temperature 22°C
Humidity 65%
Pressure 1013 hPa
Visibility 10 km or more
no clouds below 1500 m and no cumulonimbus

METAR: EGKA 161850Z 23014KT CAVOK 22/15 Q1013

Time: 06:49 (05:49 UTC)

Forecast

The report was made 15 hours and 47 minutes ago, at 14:02 UTC
Forecast valid from 16 at 15 UTC to 16 at 19 UTC
Wind 12 kt from the Southwest
Visibility 10 km or more
Few clouds at a height of 4500 ft

TAF: EGKA 161402Z 1615/1619 23012KT 9999 FEW045

Weather observations and forecasts of more than 4000 airports (METAR and TAF reports).

The available stations are represented by yellow and red dots on the map.

Hover mouse over dot to see the name of the station.

Then click to see weather observations and forecasts.

To change the map : click on the green buttons with a black cross to zoom in, on the green button with a dash to zoom out, or on the green arrows for adjacent maps.


METAR-TAF: